createdAt,value
2022-10-30T00:00:05.784Z,110.02
2022-10-30T00:00:50.735Z,121.28
2022-10-30T00:01:35.761Z,100.20
2022-10-30T00:02:20.885Z,86.07
2022-10-30T00:03:05.889Z,114.93
2022-10-30T00:03:51.184Z,111.99
2022-10-30T00:04:36.725Z,166.02
2022-10-30T00:05:21.069Z,140.48
2022-10-30T00:06:06.130Z,101.18
2022-10-30T00:06:51.082Z,84.48
2022-10-30T00:07:36.072Z,92.34
2022-10-30T00:08:21.497Z,108.30
2022-10-30T00:09:06.554Z,67.78
2022-10-30T00:09:51.553Z,65.82
2022-10-30T00:10:36.103Z,93.32
2022-10-30T00:11:21.633Z,81.53
2022-10-30T00:12:06.371Z,110.02
2022-10-30T00:12:51.836Z,80.98
2022-10-30T00:13:36.485Z,70.73
2022-10-30T00:14:21.744Z,64.39
2022-10-30T00:15:06.801Z,74.66
2022-10-30T00:15:51.660Z,61.89
2022-10-30T00:16:36.646Z,158.16
2022-10-30T00:17:21.974Z,167.82
2022-10-30T00:18:07.242Z,141.46
2022-10-30T00:18:52.289Z,77.44
2022-10-30T00:19:36.940Z,89.21
2022-10-30T00:20:22.016Z,146.37
2022-10-30T00:21:07.157Z,142.44
2022-10-30T00:21:52.027Z,147.35
2022-10-30T00:22:37.163Z,127.70
2022-10-30T00:23:22.058Z,140.48
2022-10-30T00:24:07.277Z,153.25
2022-10-30T00:24:52.442Z,173.88
2022-10-30T00:25:37.490Z,167.00
2022-10-30T00:26:22.463Z,151.28
2022-10-30T00:27:07.497Z,166.02
2022-10-30T00:27:52.453Z,157.18
2022-10-30T00:28:38.030Z,174.86
2022-10-30T00:29:23.609Z,167.82
2022-10-30T00:30:08.006Z,167.82
2022-10-30T00:30:52.578Z,148.33
2022-10-30T00:31:37.840Z,153.25
2022-10-30T00:32:22.923Z,180.75
2022-10-30T00:33:07.851Z,180.75
2022-10-30T00:33:52.904Z,136.55
2022-10-30T00:34:37.965Z,136.55
2022-10-30T00:35:23.219Z,166.02
2022-10-30T00:36:07.979Z,142.44
2022-10-30T00:36:52.943Z,169.95
2022-10-30T00:37:38.195Z,172.14
2022-10-30T00:38:23.447Z,148.67
2022-10-30T00:39:08.637Z,149.65
2022-10-30T00:39:53.362Z,154.23
2022-10-30T00:40:38.322Z,294.70
2022-10-30T00:41:23.284Z,440.09
2022-10-30T00:42:08.732Z,440.09
2022-10-30T00:42:53.819Z,291.47
2022-10-30T00:43:38.534Z,330.60
2022-10-30T00:44:23.592Z,285.86
2022-10-30T00:45:09.096Z,285.86
2022-10-30T00:45:53.913Z,261.30
2022-10-30T00:46:38.967Z,265.23
2022-10-30T00:47:24.048Z,282.92
2022-10-30T00:48:08.779Z,233.80
2022-10-30T00:48:53.832Z,269.16
2022-10-30T00:49:39.635Z,269.16
2022-10-30T00:50:24.300Z,224.96
2022-10-30T00:51:09.206Z,228.89
2022-10-30T00:51:54.159Z,255.41
2022-10-30T00:52:39.416Z,232.82
2022-10-30T00:53:24.395Z,276.04
2022-10-30T00:54:09.401Z,222.99
2022-10-30T00:54:54.387Z,267.34
2022-10-30T00:55:39.547Z,276.45
2022-10-30T00:56:24.599Z,244.10
2022-10-30T00:57:09.792Z,150.97
2022-10-30T00:57:54.520Z,190.18
2022-10-30T00:58:40.070Z,173.51
2022-10-30T00:59:24.439Z,170.57
2022-10-30T01:00:09.465Z,199.00
2022-10-30T01:00:55.068Z,414.67
2022-10-30T01:01:39.624Z,256.84
2022-10-30T01:02:25.234Z,256.84
2022-10-30T01:03:09.795Z,107.83
2022-10-30T01:03:54.958Z,99.93
2022-10-30T01:04:39.808Z,87.25
2022-10-30T01:05:24.749Z,87.25
2022-10-30T01:06:10.133Z,95.09
2022-10-30T01:06:55.324Z,95.09
2022-10-30T01:07:40.242Z,137.24
2022-10-30T01:08:25.684Z,86.27
2022-10-30T01:09:10.223Z,84.31
2022-10-30T01:09:55.196Z,98.03
2022-10-30T01:10:40.364Z,76.46
2022-10-30T01:11:25.986Z,65.68
2022-10-30T01:12:10.375Z,84.31
2022-10-30T01:12:55.431Z,65.68
2022-10-30T01:13:40.620Z,69.60
2022-10-30T01:14:25.876Z,65.68
2022-10-30T01:15:10.841Z,78.59
2022-10-30T01:15:55.755Z,87.25
2022-10-30T01:16:41.427Z,92.17
2022-10-30T01:17:25.852Z,64.70
2022-10-30T01:18:10.924Z,96.07
2022-10-30T01:18:55.982Z,83.33
2022-10-30T01:19:41.257Z,121.28
2022-10-30T01:20:26.017Z,78.42
2022-10-30T01:21:11.200Z,121.56
2022-10-30T01:21:56.290Z,108.81
2022-10-30T01:22:41.288Z,99.01
2022-10-30T01:23:26.424Z,86.27
2022-10-30T01:24:11.480Z,77.44
2022-10-30T01:24:56.567Z,72.54
2022-10-30T01:25:41.387Z,83.33
2022-10-30T01:26:26.490Z,82.35
2022-10-30T01:27:11.911Z,65.68
2022-10-30T01:27:56.659Z,66.66
2022-10-30T01:28:41.721Z,96.07
2022-10-30T01:29:26.819Z,77.44
2022-10-30T01:30:11.832Z,74.50
2022-10-30T01:30:57.053Z,87.25
2022-10-30T01:31:41.851Z,80.39
2022-10-30T01:32:27.155Z,119.60
2022-10-30T01:33:11.593Z,102.93
2022-10-30T01:33:56.715Z,106.85
2022-10-30T01:35:27.636Z,72.38
2022-10-30T01:36:12.381Z,81.37
2022-10-30T01:36:57.544Z,66.66
2022-10-30T01:37:42.616Z,76.46
2022-10-30T01:38:27.480Z,127.44
2022-10-30T01:39:12.442Z,99.99
2022-10-30T01:39:57.459Z,64.70
2022-10-30T01:40:42.644Z,55.88
2022-10-30T01:41:27.790Z,67.64
2022-10-30T01:42:13.357Z,70.58
2022-10-30T01:42:57.794Z,80.01
2022-10-30T01:43:42.747Z,59.80
2022-10-30T01:44:27.702Z,59.80
2022-10-30T01:45:13.069Z,111.00
2022-10-30T01:45:57.799Z,120.58
2022-10-30T01:46:42.872Z,134.30
2022-10-30T01:47:28.338Z,165.67
2022-10-30T01:48:12.926Z,170.57
2022-10-30T01:48:58.036Z,156.85
2022-10-30T01:49:43.171Z,173.51
2022-10-30T01:50:28.655Z,163.00
2022-10-30T01:51:13.513Z,137.91
2022-10-30T01:51:58.574Z,50.86
2022-10-30T01:52:43.424Z,42.15
2022-10-30T01:53:28.576Z,45.86
2022-10-30T01:54:13.359Z,43.13
2022-10-30T01:54:58.797Z,38.81
2022-10-30T01:55:43.716Z,99.01
2022-10-30T01:56:28.913Z,190.18
2022-10-30T01:57:13.761Z,199.98
2022-10-30T01:57:58.611Z,194.10
2022-10-30T01:58:43.765Z,238.65
2022-10-30T01:59:29.237Z,320.17
2022-10-30T02:00:13.881Z,379.50
2022-10-30T02:00:59.190Z,348.20
2022-10-30T02:01:44.239Z,387.32
2022-10-30T02:02:29.316Z,385.17
2022-10-30T02:03:14.015Z,351.93
2022-10-30T02:03:59.310Z,352.91
2022-10-30T02:04:44.116Z,388.30
2022-10-30T02:05:29.589Z,363.85
2022-10-30T02:06:14.336Z,415.69
2022-10-30T02:06:59.393Z,363.83
2022-10-30T02:07:44.756Z,439.16
2022-10-30T02:08:29.655Z,443.10
2022-10-30T02:09:14.666Z,448.00
2022-10-30T02:09:59.624Z,400.95
2022-10-30T02:10:44.676Z,389.18
2022-10-30T02:11:29.835Z,389.18
2022-10-30T02:12:14.883Z,343.11
2022-10-30T02:12:59.739Z,362.87
2022-10-30T02:13:45.105Z,366.78
2022-10-30T02:14:30.160Z,374.50
2022-10-30T02:15:15.217Z,372.65
2022-10-30T02:16:00.064Z,361.89
2022-10-30T02:16:45.130Z,451.88
2022-10-30T02:17:30.510Z,398.08
2022-10-30T02:18:15.236Z,458.73
2022-10-30T02:19:00.640Z,384.28
2022-10-30T02:19:45.447Z,444.08
2022-10-30T02:20:30.818Z,410.75
2022-10-30T02:21:15.341Z,389.29
2022-10-30T02:22:00.653Z,397.03
2022-10-30T02:22:45.424Z,429.38
2022-10-30T02:23:30.730Z,422.51
2022-10-30T02:24:15.592Z,439.50
2022-10-30T02:25:00.849Z,432.32
2022-10-30T02:25:45.906Z,418.57
2022-10-30T02:26:30.815Z,393.10
2022-10-30T02:27:15.910Z,374.48
2022-10-30T02:28:00.768Z,387.22
2022-10-30T02:28:45.822Z,436.59
2022-10-30T02:29:31.235Z,389.18
2022-10-30T02:30:16.241Z,383.23
2022-10-30T02:31:00.992Z,417.61
2022-10-30T02:31:46.117Z,430.36
2022-10-30T02:32:31.305Z,440.16
2022-10-30T02:34:01.225Z,417.61
2022-10-30T02:34:46.477Z,438.53
2022-10-30T02:35:31.637Z,409.77
2022-10-30T02:36:16.467Z,404.87
2022-10-30T02:37:01.447Z,418.59
2022-10-30T02:37:47.021Z,398.01
2022-10-30T02:38:31.865Z,441.14
2022-10-30T02:39:16.716Z,353.89
2022-10-30T02:40:01.870Z,398.99
2022-10-30T02:40:46.728Z,398.01
2022-10-30T02:41:31.984Z,462.71
2022-10-30T02:42:16.947Z,393.10
2022-10-30T02:43:02.046Z,402.91
2022-10-30T02:43:47.366Z,361.73
2022-10-30T02:44:32.720Z,378.38
2022-10-30T02:45:17.270Z,364.68
2022-10-30T02:46:02.218Z,393.10
2022-10-30T02:46:47.969Z,381.34
2022-10-30T02:47:32.294Z,401.93
2022-10-30T02:48:17.491Z,381.34
2022-10-30T02:49:02.161Z,384.28
2022-10-30T02:49:47.506Z,351.93
2022-10-30T02:50:33.241Z,348.99
2022-10-30T02:51:17.306Z,381.34
2022-10-30T02:52:02.778Z,401.93
2022-10-30T02:52:47.743Z,361.89
2022-10-30T02:53:32.679Z,386.24
2022-10-30T02:54:17.537Z,401.67
2022-10-30T02:55:02.592Z,373.50
2022-10-30T02:55:48.056Z,340.54
2022-10-30T02:56:33.213Z,409.77
2022-10-30T02:57:17.982Z,359.77
2022-10-30T02:58:03.122Z,385.26
2022-10-30T02:58:47.881Z,379.38
2022-10-30T02:59:33.060Z,401.93
2022-10-30T03:00:17.780Z,373.50
2022-10-30T03:01:02.872Z,372.52
2022-10-30T03:01:48.207Z,356.83
2022-10-30T03:02:33.063Z,365.66
2022-10-30T03:03:21.401Z,389.18
2022-10-30T03:04:03.140Z,399.97
2022-10-30T03:04:48.346Z,355.85
2022-10-30T03:05:33.635Z,383.30
2022-10-30T03:06:18.185Z,388.20
2022-10-30T03:07:03.395Z,390.16
2022-10-30T03:07:48.456Z,354.87
2022-10-30T03:08:33.714Z,429.38
2022-10-30T03:09:18.454Z,368.60
2022-10-30T03:10:03.740Z,411.73
2022-10-30T03:10:48.776Z,359.77
2022-10-30T03:11:33.832Z,404.87
2022-10-30T03:12:18.772Z,374.48
2022-10-30T03:13:03.850Z,394.08
2022-10-30T03:13:49.059Z,357.81
2022-10-30T03:14:34.171Z,402.91
2022-10-30T03:15:19.577Z,421.53
2022-10-30T03:16:03.966Z,411.73
2022-10-30T03:16:49.224Z,401.02
2022-10-30T03:17:34.273Z,416.67
2022-10-30T03:18:19.244Z,437.21
2022-10-30T03:19:04.352Z,342.33
2022-10-30T03:19:49.376Z,402.00
2022-10-30T03:20:34.409Z,390.27
2022-10-30T03:21:19.984Z,423.44
2022-10-30T03:22:04.895Z,405.76
2022-10-30T03:22:49.745Z,405.88
2022-10-30T03:23:34.761Z,431.79
2022-10-30T03:24:19.894Z,488.81
2022-10-30T03:25:04.811Z,421.49
2022-10-30T03:25:49.907Z,437.10
2022-10-30T03:26:34.953Z,484.91
2022-10-30T03:27:19.916Z,401.00
2022-10-30T03:28:04.970Z,434.18
2022-10-30T03:28:50.296Z,412.71
2022-10-30T03:29:35.205Z,480.03
2022-10-30T03:30:20.126Z,434.65
2022-10-30T03:31:05.301Z,431.74
2022-10-30T03:31:50.257Z,447.27
2022-10-30T03:32:35.218Z,472.49
2022-10-30T03:33:20.397Z,437.56
2022-10-30T03:34:05.524Z,444.36
2022-10-30T03:34:50.503Z,478.31
2022-10-30T03:35:35.452Z,453.09
2022-10-30T03:36:20.490Z,434.65
2022-10-30T03:37:05.850Z,419.13
2022-10-30T03:37:50.811Z,433.68
2022-10-30T03:38:35.764Z,421.07
2022-10-30T03:39:20.595Z,429.80
2022-10-30T03:40:05.773Z,437.56
2022-10-30T03:40:50.831Z,483.16
2022-10-30T03:41:35.885Z,452.12
2022-10-30T03:42:20.895Z,416.22
2022-10-30T03:43:06.200Z,452.12
2022-10-30T03:43:51.156Z,480.25
2022-10-30T03:44:36.216Z,478.31
2022-10-30T03:45:21.069Z,437.56
2022-10-30T03:46:06.424Z,459.88
2022-10-30T03:46:51.621Z,467.64
2022-10-30T03:47:36.643Z,436.59
2022-10-30T03:48:21.598Z,480.25
2022-10-30T03:49:06.861Z,418.16
2022-10-30T03:49:51.883Z,442.42
2022-10-30T03:50:36.771Z,453.09
2022-10-30T03:51:21.827Z,478.31
2022-10-30T03:52:06.980Z,487.04
2022-10-30T03:52:52.044Z,424.95
2022-10-30T03:53:36.937Z,441.45
2022-10-30T03:54:22.356Z,450.18
2022-10-30T03:55:07.518Z,416.22
2022-10-30T03:55:52.266Z,449.21
2022-10-30T03:56:37.316Z,448.24
2022-10-30T03:57:22.276Z,395.85
2022-10-30T03:58:07.332Z,408.46
2022-10-30T03:58:52.089Z,429.80
2022-10-30T03:59:37.240Z,414.28
2022-10-30T04:00:22.408Z,387.11
2022-10-30T04:01:07.550Z,372.56
2022-10-30T04:01:52.733Z,438.53
2022-10-30T04:02:37.499Z,411.37
2022-10-30T04:03:22.621Z,483.16
2022-10-30T04:04:07.782Z,403.61
2022-10-30T04:04:52.942Z,410.40
2022-10-30T04:05:37.728Z,410.40
2022-10-30T04:06:22.853Z,390.99
2022-10-30T04:07:07.904Z,384.20
2022-10-30T04:07:52.654Z,425.92
2022-10-30T04:08:37.814Z,441.45
2022-10-30T04:09:22.872Z,426.89
2022-10-30T04:10:08.237Z,406.86
2022-10-30T04:10:53.256Z,417.59
2022-10-30T04:11:38.244Z,410.76
2022-10-30T04:12:23.723Z,405.88
2022-10-30T04:13:08.370Z,426.37
2022-10-30T04:13:53.416Z,411.74
2022-10-30T04:14:38.468Z,411.74
2022-10-30T04:15:23.319Z,399.05
2022-10-30T04:16:09.097Z,412.51
2022-10-30T04:16:53.544Z,412.71
2022-10-30T04:17:38.495Z,433.20
2022-10-30T04:18:23.651Z,560.04
2022-10-30T04:19:08.439Z,455.64
2022-10-30T04:19:53.454Z,446.86
2022-10-30T04:20:38.713Z,446.86
2022-10-30T04:21:23.772Z,416.61
2022-10-30T04:22:08.523Z,601.02
2022-10-30T04:22:53.889Z,521.53
2022-10-30T04:23:39.155Z,411.60
2022-10-30T04:24:23.830Z,409.43
2022-10-30T04:25:09.263Z,374.64
2022-10-30T04:25:54.321Z,356.47
2022-10-30T04:26:39.064Z,364.89
2022-10-30T04:27:24.223Z,370.82
2022-10-30T04:28:09.078Z,356.45
2022-10-30T04:28:54.018Z,346.55
2022-10-30T04:29:39.500Z,323.16
2022-10-30T04:30:24.144Z,353.89
2022-10-30T04:31:09.421Z,374.71
2022-10-30T04:31:54.496Z,344.97
2022-10-30T04:32:39.316Z,326.13
2022-10-30T04:33:24.498Z,418.32
2022-10-30T04:34:09.641Z,330.10
2022-10-30T04:34:54.588Z,302.66
2022-10-30T04:35:39.796Z,319.53
2022-10-30T04:36:25.270Z,317.54
2022-10-30T04:37:09.859Z,315.56
2022-10-30T04:37:55.144Z,317.54
2022-10-30T04:38:39.971Z,288.77
2022-10-30T04:39:25.127Z,316.55
2022-10-30T04:40:10.081Z,372.72
2022-10-30T04:40:55.033Z,436.62
2022-10-30T04:41:40.316Z,423.72
2022-10-30T04:42:25.114Z,436.62
2022-10-30T04:43:10.214Z,406.85
2022-10-30T04:43:55.366Z,400.90
2022-10-30T04:44:40.725Z,428.69
2022-10-30T04:45:26.039Z,434.64
2022-10-30T04:46:10.427Z,433.65
2022-10-30T04:46:55.693Z,364.18
2022-10-30T04:47:40.439Z,377.68
2022-10-30T04:48:26.239Z,433.65
2022-10-30T04:49:10.758Z,349.30
2022-10-30T04:49:55.611Z,394.95
2022-10-30T04:50:40.769Z,474.33
2022-10-30T04:51:25.470Z,1116.37
2022-10-30T04:52:10.786Z,1115.38
2022-10-30T04:52:56.040Z,1100.47
2022-10-30T04:53:41.120Z,1083.57
2022-10-30T04:54:26.265Z,1070.65
2022-10-30T04:55:11.116Z,1067.67
2022-10-30T04:55:56.367Z,1052.75
2022-10-30T04:56:41.253Z,1044.80
2022-10-30T04:57:26.595Z,1075.44
2022-10-30T04:58:11.127Z,1070.47
2022-10-30T04:58:56.290Z,1057.82
2022-10-30T04:59:41.961Z,1084.39
2022-10-30T05:00:26.553Z,1049.57
2022-10-30T05:01:11.707Z,1134.14
2022-10-30T05:01:56.854Z,1059.81
2022-10-30T05:02:41.992Z,1054.55
2022-10-30T05:03:26.828Z,1065.49
2022-10-30T05:04:11.799Z,1053.55
2022-10-30T05:04:56.802Z,465.59
2022-10-30T05:05:42.038Z,1084.13
2022-10-30T05:06:27.179Z,1064.22
2022-10-30T05:07:12.220Z,1060.24
2022-10-30T05:07:57.568Z,1062.23
2022-10-30T05:08:42.018Z,1055.74
2022-10-30T05:09:27.512Z,1048.92
2022-10-30T05:10:12.241Z,1106.28
2022-10-30T05:10:57.301Z,1099.72
2022-10-30T05:11:42.275Z,1082.79
2022-10-30T05:12:27.811Z,1074.40
2022-10-30T05:13:12.565Z,1061.23
2022-10-30T05:13:57.417Z,1058.45
2022-10-30T05:14:42.386Z,1054.46
2022-10-30T05:15:27.858Z,825.23
2022-10-30T05:16:12.460Z,1068.42
2022-10-30T05:16:57.620Z,1065.43
2022-10-30T05:17:42.695Z,1073.40
2022-10-30T05:18:27.582Z,1080.38
2022-10-30T05:19:12.915Z,1087.35
2022-10-30T05:19:58.037Z,1092.34
2022-10-30T05:20:43.037Z,1092.34
2022-10-30T05:21:28.300Z,1083.37
2022-10-30T05:22:13.036Z,1081.37
2022-10-30T05:22:58.096Z,1078.38
2022-10-30T05:23:42.954Z,1080.38
2022-10-30T05:24:28.122Z,1076.34
2022-10-30T05:25:13.162Z,1071.36
2022-10-30T05:25:58.175Z,1079.34
2022-10-30T05:26:43.427Z,1073.35
2022-10-30T05:27:28.428Z,1072.35
2022-10-30T05:28:13.310Z,1080.33
2022-10-30T05:28:58.442Z,1080.33
2022-10-30T05:29:43.503Z,404.00
2022-10-30T05:30:28.760Z,398.02
2022-10-30T05:31:13.639Z,1119.24
2022-10-30T05:31:58.570Z,1085.78
2022-10-30T05:32:43.619Z,1082.33
2022-10-30T05:33:28.599Z,1082.33
2022-10-30T05:34:13.530Z,1084.32
2022-10-30T05:34:58.647Z,1084.32
2022-10-30T05:35:43.950Z,1088.31
2022-10-30T05:36:29.004Z,1080.33
2022-10-30T05:37:13.855Z,1075.35
2022-10-30T05:37:58.766Z,1072.35
2022-10-30T05:38:43.751Z,1063.43
2022-10-30T05:39:29.249Z,1072.40
2022-10-30T05:40:14.085Z,1079.38
2022-10-30T05:40:59.141Z,1076.39
2022-10-30T05:41:44.096Z,1073.40
2022-10-30T05:42:29.351Z,1065.22
2022-10-30T05:43:14.262Z,1070.41
2022-10-30T05:43:59.027Z,1067.21
2022-10-30T05:44:59.741Z,1073.40
2022-10-30T05:45:29.629Z,1058.45
2022-10-30T05:46:14.330Z,1051.47
2022-10-30T05:46:59.347Z,1056.46
2022-10-30T05:47:44.359Z,1060.44
2022-10-30T05:48:29.710Z,1067.37
2022-10-30T05:49:14.562Z,1051.47
2022-10-30T05:50:00.537Z,1042.50
2022-10-30T05:50:44.571Z,1063.38
2022-10-30T05:51:29.931Z,1057.39
2022-10-30T05:52:14.799Z,1054.46
2022-10-30T05:52:59.638Z,1054.46
2022-10-30T05:53:45.099Z,1069.41
2022-10-30T05:54:30.155Z,1080.38
2022-10-30T05:55:15.110Z,1073.40
2022-10-30T05:55:59.965Z,1069.41
2022-10-30T05:56:45.123Z,1110.28
2022-10-30T05:57:30.382Z,1071.41
2022-10-30T05:58:15.774Z,1075.39
2022-10-30T05:59:00.312Z,1072.40
2022-10-30T05:59:45.474Z,228.23
2022-10-30T06:00:30.709Z,208.30
2022-10-30T06:01:15.597Z,153.49
2022-10-30T06:02:00.790Z,224.25
2022-10-30T06:02:46.246Z,490.35
2022-10-30T06:03:30.562Z,1122.23
2022-10-30T06:04:15.690Z,1091.34
2022-10-30T06:05:00.735Z,793.34
2022-10-30T06:05:45.724Z,935.86
2022-10-30T06:06:31.009Z,1110.68
2022-10-30T06:07:16.111Z,1094.74
2022-10-30T06:08:00.966Z,1084.78
2022-10-30T06:08:45.915Z,1079.80
2022-10-30T06:09:31.165Z,1059.88
2022-10-30T06:10:16.442Z,1058.88
2022-10-30T06:11:01.203Z,1064.86
2022-10-30T06:11:46.245Z,1063.86
2022-10-30T06:12:31.508Z,1059.88
2022-10-30T06:13:16.877Z,1079.38
2022-10-30T06:14:01.315Z,1079.38
2022-10-30T06:14:46.752Z,1082.79
2022-10-30T06:15:31.747Z,1082.79
2022-10-30T06:16:16.703Z,1089.76
2022-10-30T06:17:01.759Z,1070.47
2022-10-30T06:17:46.698Z,1089.76
2022-10-30T06:18:31.770Z,1061.87
2022-10-30T06:19:18.691Z,468.18
2022-10-30T06:20:01.585Z,595.68
2022-10-30T06:20:46.933Z,1114.67
2022-10-30T06:21:32.389Z,1166.46
2022-10-30T06:22:17.040Z,1158.49
2022-10-30T06:23:02.722Z,1166.09
2022-10-30T06:23:47.265Z,1159.49
2022-10-30T06:24:32.100Z,1166.46
2022-10-30T06:25:17.190Z,1153.04
2022-10-30T06:26:02.521Z,1094.74
2022-10-30T06:26:47.085Z,1090.34
2022-10-30T06:27:32.436Z,1089.35
2022-10-30T06:28:17.181Z,1101.31
2022-10-30T06:29:02.135Z,1075.39
2022-10-30T06:29:47.085Z,1071.41
2022-10-30T06:30:32.471Z,1066.37
2022-10-30T06:31:17.659Z,1066.37
2022-10-30T06:32:05.733Z,1064.37
2022-10-30T06:32:47.516Z,1062.38
2022-10-30T06:33:33.296Z,1058.39
2022-10-30T06:34:17.839Z,1058.39
2022-10-30T06:35:02.483Z,545.65
2022-10-30T06:35:47.536Z,1117.24
2022-10-30T06:36:33.253Z,1142.18
2022-10-30T06:37:17.459Z,1142.17
2022-10-30T06:38:02.916Z,982.58
2022-10-30T06:38:47.708Z,1096.29
2022-10-30T06:39:33.335Z,1072.35
2022-10-30T06:40:18.308Z,1082.37
2022-10-30T06:41:03.275Z,1078.38
2022-10-30T06:41:48.011Z,1091.34
2022-10-30T06:42:35.304Z,1091.34
2022-10-30T06:43:18.412Z,1027.55
2022-10-30T06:44:03.300Z,1082.37
2022-10-30T06:44:48.394Z,1112.27
2022-10-30T06:45:33.903Z,1139.18
2022-10-30T06:46:18.570Z,1139.18
2022-10-30T06:47:03.793Z,1154.51
2022-10-30T06:47:48.545Z,1154.51
2022-10-30T06:48:33.802Z,1144.55
2022-10-30T06:49:18.662Z,1090.76
2022-10-30T06:50:03.923Z,1087.35
2022-10-30T06:50:48.973Z,1092.34
2022-10-30T06:51:34.140Z,1062.44
2022-10-30T06:52:19.119Z,1149.53
2022-10-30T06:53:04.149Z,1153.51
2022-10-30T06:53:49.544Z,1140.11
2022-10-30T06:54:34.324Z,1147.07
2022-10-30T06:55:19.532Z,1122.63
2022-10-30T06:56:04.469Z,1122.63
2022-10-30T06:56:49.436Z,1111.26
2022-10-30T06:57:34.589Z,1105.70
2022-10-30T06:58:19.564Z,1105.70
2022-10-30T06:59:04.737Z,1033.98
2022-10-30T06:59:49.606Z,1056.89
2022-10-30T07:00:34.818Z,1018.04
2022-10-30T07:01:19.705Z,1009.78
2022-10-30T07:02:06.979Z,1033.98
2022-10-30T07:02:50.084Z,1067.48
2022-10-30T07:03:35.146Z,1079.80
2022-10-30T07:04:20.092Z,870.61
2022-10-30T07:05:05.176Z,907.47
2022-10-30T07:05:50.007Z,916.44
2022-10-30T07:06:35.377Z,1005.09
2022-10-30T07:07:20.226Z,1039.63
2022-10-30T07:08:05.269Z,1164.09
2022-10-30T07:08:50.330Z,1077.39
2022-10-30T07:09:35.386Z,563.11
2022-10-30T07:10:20.628Z,573.42
2022-10-30T07:11:05.480Z,567.10
2022-10-30T07:11:54.375Z,1105.70
2022-10-30T07:12:35.714Z,1121.24
2022-10-30T07:13:20.669Z,1084.36
2022-10-30T07:14:05.828Z,1083.37
2022-10-30T07:14:50.794Z,1075.39
2022-10-30T07:15:35.802Z,1033.53
2022-10-30T07:16:20.627Z,1063.43
2022-10-30T07:17:05.745Z,1155.12
2022-10-30T07:17:51.017Z,1128.21
2022-10-30T07:18:36.269Z,712.61
2022-10-30T07:19:21.942Z,278.92
2022-10-30T07:20:06.285Z,200.33
2022-10-30T07:20:51.732Z,156.48
2022-10-30T07:21:36.025Z,156.48
2022-10-30T07:22:21.445Z,148.50
2022-10-30T07:23:06.502Z,190.15
2022-10-30T07:23:51.562Z,1104.70
2022-10-30T07:24:36.924Z,1079.42
2022-10-30T07:25:21.679Z,1056.89
2022-10-30T07:26:06.581Z,1056.89
2022-10-30T07:26:51.690Z,1089.76
2022-10-30T07:27:36.685Z,1072.83
2022-10-30T07:28:21.701Z,1081.79
2022-10-30T07:29:06.853Z,1081.79
2022-10-30T07:29:51.911Z,1084.78
2022-10-30T07:30:36.965Z,1056.89
2022-10-30T07:31:34.817Z,812.84
2022-10-30T07:32:06.959Z,968.54
2022-10-30T07:32:52.041Z,1098.32
2022-10-30T07:33:37.092Z,1007.62
2022-10-30T07:34:22.482Z,1075.39
2022-10-30T07:35:07.204Z,1057.45
2022-10-30T07:35:52.583Z,1064.43
2022-10-30T07:36:37.415Z,1074.40
2022-10-30T07:37:22.275Z,1076.81
2022-10-30T07:38:07.662Z,1080.41
2022-10-30T07:38:52.697Z,1077.81
2022-10-30T07:39:37.543Z,866.52
2022-10-30T07:40:22.492Z,926.40
2022-10-30T07:41:07.551Z,990.88
2022-10-30T07:41:52.738Z,1080.80
2022-10-30T07:42:37.970Z,1065.22
2022-10-30T07:43:22.925Z,1076.17
2022-10-30T07:44:07.983Z,1072.40
2022-10-30T07:44:53.206Z,1161.48
2022-10-30T07:45:38.093Z,1057.89
2022-10-30T07:46:23.049Z,283.05
2022-10-30T07:47:08.002Z,193.35
2022-10-30T07:47:53.058Z,212.29
2022-10-30T07:48:38.275Z,209.30
2022-10-30T07:49:23.283Z,230.11
2022-10-30T07:50:08.229Z,216.16
2022-10-30T07:50:53.389Z,234.09
2022-10-30T07:51:38.424Z,293.86
2022-10-30T07:52:23.410Z,217.16
2022-10-30T07:53:08.553Z,292.86
2022-10-30T07:53:53.509Z,1136.58
2022-10-30T07:54:38.565Z,1129.61
2022-10-30T07:55:23.829Z,1113.67
2022-10-30T07:56:08.679Z,1120.64
2022-10-30T07:56:53.639Z,1113.67
2022-10-30T07:57:38.682Z,1111.68
2022-10-30T07:58:23.844Z,1085.78
2022-10-30T07:59:08.900Z,1086.77
2022-10-30T07:59:55.066Z,1082.79
2022-10-30T08:00:38.608Z,626.56
2022-10-30T08:01:24.080Z,694.30
2022-10-30T08:02:08.654Z,1104.70
2022-10-30T08:02:54.064Z,1090.76
2022-10-30T08:03:38.735Z,1095.74
2022-10-30T08:04:24.202Z,1090.76
2022-10-30T08:05:09.355Z,1074.82
2022-10-30T08:05:54.353Z,1110.26
2022-10-30T08:06:39.367Z,1115.66
2022-10-30T08:07:24.115Z,1118.22
2022-10-30T08:08:08.968Z,1132.60
2022-10-30T08:08:54.230Z,1119.65
2022-10-30T08:09:39.594Z,1105.70
2022-10-30T08:10:24.648Z,1123.19
2022-10-30T08:11:09.261Z,1111.68
2022-10-30T08:11:54.557Z,1106.28
2022-10-30T08:12:39.857Z,1120.64
2022-10-30T08:13:24.497Z,1126.94
2022-10-30T08:14:10.344Z,1137.89
2022-10-30T08:14:54.786Z,1134.90
2022-10-30T08:15:39.887Z,1125.94
2022-10-30T08:16:25.508Z,1131.92
2022-10-30T08:17:10.054Z,1133.14
2022-10-30T08:17:55.013Z,1132.15
2022-10-30T08:18:39.861Z,1118.22
2022-10-30T08:19:24.915Z,1111.26
2022-10-30T08:20:10.391Z,1111.26
2022-10-30T08:20:55.665Z,1107.28
2022-10-30T08:21:40.329Z,1090.36
2022-10-30T08:22:25.446Z,1096.33
2022-10-30T08:23:10.304Z,1096.33
2022-10-30T08:23:55.763Z,637.70
2022-10-30T08:24:40.727Z,715.30
2022-10-30T08:25:25.782Z,1096.33
2022-10-30T08:26:10.631Z,1088.37
2022-10-30T08:26:55.689Z,1075.44
2022-10-30T08:27:40.736Z,1078.42
2022-10-30T08:28:29.870Z,1078.42
2022-10-30T08:29:10.904Z,1040.62
2022-10-30T08:29:55.951Z,1062.78
2022-10-30T08:30:40.814Z,1087.12
2022-10-30T08:31:25.832Z,1074.63
2022-10-30T08:32:10.878Z,1134.90
2022-10-30T08:32:56.687Z,1153.16
2022-10-30T08:33:41.297Z,1088.11
2022-10-30T08:34:26.360Z,1089.11
2022-10-30T08:35:11.805Z,1077.16
2022-10-30T08:35:56.385Z,1077.16
2022-10-30T08:36:42.792Z,583.38
2022-10-30T08:37:26.987Z,606.28
2022-10-30T08:38:11.533Z,590.35
2022-10-30T08:38:56.428Z,590.35
2022-10-30T08:39:41.344Z,1082.14
2022-10-30T08:40:26.482Z,502.74
2022-10-30T08:41:11.861Z,487.81
2022-10-30T08:41:56.712Z,541.79
2022-10-30T08:42:41.752Z,502.74
2022-10-30T08:43:26.694Z,517.67
2022-10-30T08:44:12.087Z,579.40
2022-10-30T08:44:57.035Z,579.40
2022-10-30T08:45:42.095Z,744.66
2022-10-30T08:46:27.051Z,809.20
2022-10-30T08:47:12.005Z,814.34
2022-10-30T08:47:57.454Z,786.93
2022-10-30T08:48:42.130Z,897.36
2022-10-30T08:49:27.582Z,814.79
2022-10-30T08:50:12.282Z,732.21
2022-10-30T08:50:57.288Z,717.45
2022-10-30T08:51:42.232Z,722.27
2022-10-30T08:52:27.936Z,823.74
2022-10-30T08:53:12.352Z,855.58
2022-10-30T08:53:57.721Z,901.34
2022-10-30T08:54:42.465Z,1088.58
2022-10-30T08:55:27.950Z,1073.45
2022-10-30T08:56:12.737Z,1092.35
2022-10-30T08:56:57.636Z,1067.48
2022-10-30T08:57:42.767Z,630.74
2022-10-30T08:58:28.256Z,768.03
2022-10-30T08:59:15.858Z,1074.45
2022-10-30T08:59:57.859Z,496.43
2022-10-30T09:00:42.714Z,761.07
2022-10-30T09:01:28.634Z,465.59
2022-10-30T09:02:13.269Z,451.67
2022-10-30T09:02:58.693Z,444.36
2022-10-30T09:03:43.354Z,597.46
2022-10-30T09:04:28.619Z,463.25
2022-10-30T09:05:13.457Z,469.22
2022-10-30T09:05:58.244Z,441.38
2022-10-30T09:06:43.485Z,441.38
2022-10-30T09:07:28.559Z,490.46
2022-10-30T09:08:13.378Z,518.44
2022-10-30T09:08:58.497Z,496.06
2022-10-30T09:09:43.594Z,538.27
2022-10-30T09:10:28.601Z,473.19
2022-10-30T09:11:13.501Z,476.18
2022-10-30T09:11:58.560Z,505.01
2022-10-30T09:12:43.718Z,476.81
2022-10-30T09:13:29.197Z,492.08
2022-10-30T09:14:13.940Z,451.32
2022-10-30T09:14:58.884Z,482.14
2022-10-30T09:15:44.558Z,507.54
2022-10-30T09:16:29.205Z,465.24
2022-10-30T09:17:13.804Z,470.21
2022-10-30T09:17:59.652Z,484.13
2022-10-30T09:18:44.185Z,511.36